Terminal Aerodrome Forecast
Issued by NWS North Platte, NE

Home | Current Version | Previous Version | Text Only | Print | Product List | Glossary Off
Versions: 1 2 3 4 5 6 7 8 9 10 11 12 13 14 15

000
FTUS43 KLBF 301100
TAFVTN
TAF
KVTN 301120Z 3012/3112 25006KT P6SM FEW250
     FM301400 29009KT P6SM FEW250
     FM301800 32016G25KT P6SM SCT250
     FM310100 28005KT P6SM SCT250=

USA.gov is the U.S. government's official web portal to all federal, state and local government web resources and services.